createdAt,value
2022-09-23T00:01:25.068Z,98728.09
2022-09-23T00:04:12.770Z,98731.88
2022-09-23T00:07:02.621Z,98726.59
2022-09-23T00:09:51.890Z,98718.94
2022-09-23T00:12:39.272Z,98723.59
2022-09-23T00:15:31.071Z,98735.19
2022-09-23T00:18:20.578Z,98731.06
2022-09-23T00:21:11.968Z,98733.94
2022-09-23T00:24:00.098Z,98729.84
2022-09-23T00:26:49.012Z,98733.44
2022-09-23T00:29:36.890Z,98730.06
2022-09-23T00:32:24.812Z,98732.78
2022-09-23T00:35:12.424Z,98728.59
2022-09-23T00:37:59.754Z,98719.97
2022-09-23T00:40:48.335Z,98716.72
2022-09-23T00:43:43.167Z,98719.56
2022-09-23T00:46:36.624Z,98714.41
2022-09-23T00:49:31.370Z,98718.94
2022-09-23T00:52:24.341Z,98709.34
2022-09-23T00:55:20.544Z,98712.22
2022-09-23T00:58:12.245Z,98707.16
2022-09-23T01:01:03.550Z,98707.28
2022-09-23T01:03:52.794Z,98706.53
2022-09-23T01:06:40.957Z,98704.97
2022-09-23T01:09:28.796Z,98699.09
2022-09-23T01:12:38.664Z,98700.00
2022-09-23T01:15:36.899Z,98706.34
2022-09-23T01:18:40.841Z,98701.19
2022-09-23T01:21:50.941Z,98701.28
2022-09-23T01:25:11.561Z,98704.03
2022-09-23T01:28:29.821Z,98705.09
2022-09-23T01:31:29.908Z,98706.97
2022-09-23T01:34:27.278Z,98698.34
2022-09-23T01:37:28.523Z,98696.66
2022-09-23T01:40:24.329Z,98704.56
2022-09-23T01:43:24.206Z,98697.84
2022-09-23T01:46:21.408Z,98698.06
2022-09-23T01:49:17.919Z,98690.47
2022-09-23T01:52:16.160Z,98691.44
2022-09-23T01:55:13.292Z,98687.22
2022-09-23T01:58:08.392Z,98682.91
2022-09-23T02:01:03.122Z,98683.13
2022-09-23T02:04:04.173Z,98685.75
2022-09-23T02:06:58.571Z,98684.19
2022-09-23T02:09:54.772Z,98685.25
2022-09-23T02:12:49.943Z,98690.72
2022-09-23T02:15:45.025Z,98675.03
2022-09-23T02:18:42.170Z,98680.50
2022-09-23T02:21:36.869Z,98684.06
2022-09-23T02:24:33.002Z,98675.56
2022-09-23T02:27:33.448Z,98675.66
2022-09-23T02:30:27.195Z,98674.91
2022-09-23T02:33:25.241Z,98675.03
2022-09-23T02:36:25.832Z,98678.63
2022-09-23T02:39:15.777Z,98670.09
2022-09-23T02:42:10.042Z,98672.09
2022-09-23T02:44:58.973Z,98673.03
2022-09-23T02:47:54.252Z,98672.31
2022-09-23T02:50:42.223Z,98668.94
2022-09-23T02:53:33.889Z,98663.88
2022-09-23T02:56:23.270Z,98671.97
2022-09-23T02:59:12.937Z,98676.50
2022-09-23T03:02:28.370Z,98673.88
2022-09-23T03:05:25.814Z,98665.44
2022-09-23T03:08:36.785Z,98665.56
2022-09-23T03:11:26.180Z,98671.66
2022-09-23T03:14:26.641Z,98675.22
2022-09-23T03:17:25.191Z,98666.63
2022-09-23T03:20:25.849Z,98666.81
2022-09-23T03:23:18.909Z,98668.69
2022-09-23T03:26:14.263Z,98663.66
2022-09-23T03:29:06.524Z,98667.22
2022-09-23T03:31:56.244Z,98657.66
2022-09-23T03:34:47.817Z,98651.66
2022-09-23T03:37:43.082Z,98651.03
2022-09-23T03:40:36.736Z,98647.69
2022-09-23T03:43:24.792Z,98652.19
2022-09-23T03:46:15.294Z,98643.47
2022-09-23T03:49:11.519Z,98645.34
2022-09-23T03:51:59.572Z,98649.84
2022-09-23T03:54:47.691Z,98644.72
2022-09-23T03:57:35.327Z,98640.50
2022-09-23T04:00:23.031Z,98639.03
2022-09-23T04:03:14.634Z,98640.06
2022-09-23T04:06:02.560Z,98639.25
2022-09-23T04:08:50.410Z,98634.19
2022-09-23T04:11:37.910Z,98627.25
2022-09-23T04:14:25.765Z,98631.00
2022-09-23T04:17:13.998Z,98631.13
2022-09-23T04:20:03.356Z,98632.91
2022-09-23T04:22:51.050Z,98631.31
2022-09-23T04:25:45.875Z,98627.88
2022-09-23T04:28:34.375Z,98623.53
2022-09-23T04:31:23.897Z,98624.50
2022-09-23T04:34:13.168Z,98625.66
2022-09-23T04:37:02.739Z,98634.59
2022-09-23T04:39:51.187Z,98626.81
2022-09-23T04:42:40.117Z,98628.69
2022-09-23T04:45:27.870Z,98624.38
2022-09-23T04:48:16.625Z,98623.63
2022-09-23T04:51:06.201Z,98611.44
2022-09-23T04:53:56.557Z,98618.56
2022-09-23T04:56:46.675Z,98616.91
2022-09-23T04:59:35.257Z,98618.56
2022-09-23T05:02:23.304Z,98618.56
2022-09-23T05:05:10.732Z,98627.41
2022-09-23T05:07:58.527Z,98624.97
2022-09-23T05:10:47.451Z,98631.16
2022-09-23T05:13:35.685Z,98630.31
2022-09-23T05:16:25.297Z,98626.94
2022-09-23T05:19:13.497Z,98627.81
2022-09-23T05:22:01.180Z,98627.81
2022-09-23T05:24:49.038Z,98635.78
2022-09-23T05:27:38.137Z,98637.53
2022-09-23T05:30:25.570Z,98627.03
2022-09-23T05:33:13.414Z,98630.53
2022-09-23T05:36:00.998Z,98626.94
2022-09-23T05:38:49.896Z,98637.25
2022-09-23T05:41:40.332Z,98641.44
2022-09-23T05:44:29.434Z,98634.31
2022-09-23T05:47:16.825Z,98632.44
2022-09-23T05:50:04.492Z,98633.38
2022-09-23T05:52:52.185Z,98641.06
2022-09-23T05:55:40.287Z,98632.25
2022-09-23T05:58:28.197Z,98638.03
2022-09-23T06:01:21.533Z,98646.66
2022-09-23T06:04:14.064Z,98648.88
2022-09-23T06:07:03.474Z,98643.44
2022-09-23T06:09:51.595Z,98638.69
2022-09-23T06:12:39.527Z,98647.31
2022-09-23T06:15:27.463Z,98645.09
2022-09-23T06:18:17.237Z,98646.50
2022-09-23T06:21:06.046Z,98648.50
2022-09-23T06:23:56.696Z,98643.38
2022-09-23T06:26:44.899Z,98645.78
2022-09-23T06:29:33.162Z,98650.97
2022-09-23T06:32:20.867Z,98654.00
2022-09-23T06:35:24.186Z,98660.28
2022-09-23T06:38:14.311Z,98655.22
2022-09-23T06:41:03.191Z,98658.16
2022-09-23T06:43:50.776Z,98666.88
2022-09-23T06:46:38.303Z,98663.16
2022-09-23T06:49:26.645Z,98657.94
2022-09-23T06:52:15.586Z,98660.03
2022-09-23T06:55:03.335Z,98663.44
2022-09-23T06:57:51.057Z,98663.38
2022-09-23T07:00:38.762Z,98658.91
2022-09-23T07:03:26.709Z,98659.81
2022-09-23T07:06:15.423Z,98659.13
2022-09-23T07:09:08.588Z,98659.47
2022-09-23T07:11:56.278Z,98649.56
2022-09-23T07:14:47.075Z,98654.50
2022-09-23T07:17:35.130Z,98656.88
2022-09-23T07:20:23.165Z,98662.25
2022-09-23T07:23:10.882Z,98658.44
2022-09-23T07:26:00.645Z,98663.34
2022-09-23T07:28:48.728Z,98654.34
2022-09-23T07:31:40.193Z,98657.81
2022-09-23T07:34:29.169Z,98659.63
2022-09-23T07:37:17.628Z,98661.97
2022-09-23T07:40:09.538Z,98664.69
2022-09-23T07:42:59.625Z,98666.81
2022-09-23T07:45:47.080Z,98662.78
2022-09-23T07:48:35.963Z,98671.84
2022-09-23T07:51:29.022Z,98674.63
2022-09-23T07:54:19.479Z,98674.03
2022-09-23T07:57:07.254Z,98672.19
2022-09-23T07:59:55.857Z,98665.03
2022-09-23T08:02:44.258Z,98654.00
2022-09-23T08:05:31.872Z,98655.75
2022-09-23T08:08:19.805Z,98643.34
2022-09-23T08:11:10.314Z,98642.00
2022-09-23T08:13:58.694Z,98635.47
2022-09-23T08:16:48.267Z,98632.97
2022-09-23T08:19:36.315Z,98631.88
2022-09-23T08:22:24.123Z,98624.88
2022-09-23T08:25:13.766Z,98620.63
2022-09-23T08:28:01.156Z,98624.22
2022-09-23T08:30:50.682Z,98609.66
2022-09-23T08:33:39.799Z,98608.75
2022-09-23T08:36:28.006Z,98594.09
2022-09-23T08:39:18.183Z,98586.91
2022-09-23T08:42:18.357Z,98590.34
2022-09-23T08:45:14.584Z,98583.91
2022-09-23T08:48:12.957Z,98568.06
2022-09-23T08:51:07.532Z,98558.22
2022-09-23T08:53:55.143Z,98558.22
2022-09-23T08:56:48.899Z,98545.84
2022-09-23T08:59:53.658Z,98529.97
2022-09-23T09:02:42.690Z,98530.69
2022-09-23T09:05:31.029Z,98528.72
2022-09-23T09:08:27.857Z,98520.25
2022-09-23T09:11:19.528Z,98517.63
2022-09-23T09:14:23.534Z,98519.13
2022-09-23T09:17:21.206Z,98514.22
2022-09-23T09:20:25.806Z,98506.31
2022-09-23T09:23:27.497Z,98511.59
2022-09-23T09:26:22.391Z,98505.22
2022-09-23T09:29:34.316Z,98513.50
2022-09-23T09:32:47.400Z,98512.06
2022-09-23T09:35:42.409Z,98503.00
2022-09-23T09:38:31.790Z,98499.59
2022-09-23T09:41:22.311Z,98498.47
2022-09-23T09:44:24.794Z,98494.03
2022-09-23T09:47:30.511Z,98485.13
2022-09-23T09:50:40.920Z,98484.56
2022-09-23T09:53:35.789Z,98474.50
2022-09-23T09:56:31.644Z,98481.50
2022-09-23T09:59:28.224Z,98468.50
2022-09-23T10:02:29.194Z,98464.84
2022-09-23T10:05:28.365Z,98462.63
2022-09-23T10:08:28.990Z,98464.28
2022-09-23T10:11:20.230Z,98458.84
2022-09-23T10:14:17.761Z,98450.28
2022-09-23T10:17:08.906Z,98447.78
2022-09-23T10:20:01.480Z,98446.97
2022-09-23T10:22:49.249Z,98448.69
2022-09-23T10:25:38.386Z,98440.50
2022-09-23T10:28:42.977Z,98439.75
2022-09-23T10:31:39.254Z,98430.66
2022-09-23T10:34:29.347Z,98436.47
2022-09-23T10:37:24.939Z,98426.56
2022-09-23T10:40:38.288Z,98429.41
2022-09-23T10:43:51.331Z,98413.81
2022-09-23T10:46:46.203Z,98419.47
2022-09-23T10:50:26.039Z,98413.34
2022-09-23T10:53:26.053Z,98405.66
2022-09-23T10:56:32.847Z,98396.03
2022-09-23T11:00:00.874Z,98391.50
2022-09-23T11:03:25.884Z,98391.91
2022-09-23T11:06:28.628Z,98385.88
2022-09-23T11:12:38.909Z,98384.22
2022-09-23T11:15:45.766Z,98387.44
2022-09-23T11:18:56.543Z,98383.28
2022-09-23T11:22:22.449Z,98383.28
2022-09-23T11:25:33.561Z,98386.59
2022-09-23T11:29:27.707Z,98377.56
2022-09-23T11:32:51.182Z,98373.00
2022-09-23T11:35:49.193Z,98360.84
2022-09-23T11:38:42.366Z,98349.47
2022-09-23T11:41:32.539Z,98353.03
2022-09-23T11:44:29.491Z,98350.19
2022-09-23T11:47:25.205Z,98350.91
2022-09-23T11:50:25.743Z,98338.16
2022-09-23T11:53:25.355Z,98338.16
2022-09-23T11:56:35.040Z,98340.59
2022-09-23T11:59:40.646Z,98336.28
2022-09-23T12:02:40.891Z,98332.75
2022-09-23T12:05:36.520Z,98328.50
2022-09-23T12:08:30.656Z,98322.31
2022-09-23T12:11:31.855Z,98321.44
2022-09-23T12:14:30.947Z,98320.22
2022-09-23T12:17:40.786Z,98318.19
2022-09-23T12:20:48.647Z,98311.34
2022-09-23T12:24:19.271Z,98307.03
2022-09-23T12:27:13.315Z,98303.69
2022-09-23T12:30:13.653Z,98307.94
2022-09-23T12:33:12.266Z,98307.88
2022-09-23T12:36:09.252Z,98294.13
2022-09-23T12:39:06.163Z,98291.88
2022-09-23T12:42:02.369Z,98292.25
2022-09-23T12:44:52.090Z,98290.41
2022-09-23T12:47:41.121Z,98289.59
2022-09-23T12:50:52.664Z,98281.13
2022-09-23T12:54:15.541Z,98278.28
2022-09-23T12:57:11.386Z,98273.31
2022-09-23T13:00:16.160Z,98274.09
2022-09-23T13:06:27.327Z,98270.25
2022-09-23T13:09:22.385Z,98274.84
2022-09-23T13:12:22.306Z,98263.31
2022-09-23T13:15:25.118Z,98264.84
2022-09-23T13:18:58.553Z,98250.13
2022-09-23T13:22:09.092Z,98252.13
2022-09-23T13:25:17.147Z,98238.78
2022-09-23T13:28:29.719Z,98236.31
2022-09-23T13:31:21.079Z,98225.06
2022-09-23T13:34:14.817Z,98217.75
2022-09-23T13:37:22.215Z,98222.25
2022-09-23T13:40:20.640Z,98218.63
2022-09-23T13:43:17.352Z,98214.97
2022-09-23T13:46:09.299Z,98215.09
2022-09-23T13:48:58.123Z,98216.72
2022-09-23T13:51:46.956Z,98202.25
2022-09-23T13:54:46.614Z,98208.44
2022-09-23T13:57:39.521Z,98203.09
2022-09-23T14:00:27.824Z,98215.47
2022-09-23T14:03:24.504Z,98208.94
2022-09-23T14:06:15.230Z,98213.91
2022-09-23T14:09:03.571Z,98207.53
2022-09-23T14:11:52.917Z,98200.13
2022-09-23T14:14:44.115Z,98200.34
2022-09-23T14:17:32.013Z,98203.41
2022-09-23T14:20:21.829Z,98199.72
2022-09-23T14:23:14.078Z,98199.25
2022-09-23T14:26:02.691Z,98195.06
2022-09-23T14:28:51.159Z,98190.69
2022-09-23T14:31:40.819Z,98190.09
2022-09-23T14:35:00.527Z,98194.59
2022-09-23T14:38:09.394Z,98178.66
2022-09-23T14:41:14.043Z,98177.78
2022-09-23T14:44:03.200Z,98175.94
2022-09-23T14:46:58.469Z,98177.50
2022-09-23T14:50:10.504Z,98179.22
2022-09-23T14:52:58.238Z,98170.50
2022-09-23T14:55:46.395Z,98163.41
2022-09-23T14:58:49.482Z,98160.34
2022-09-23T15:01:40.622Z,98163.16
2022-09-23T15:04:35.370Z,98161.13
2022-09-23T15:07:23.816Z,98155.03
2022-09-23T15:10:19.915Z,98151.66
2022-09-23T15:13:10.702Z,98158.41
2022-09-23T15:16:01.835Z,98149.47
2022-09-23T15:18:56.536Z,98155.88
2022-09-23T15:21:47.687Z,98159.06
2022-09-23T15:24:38.916Z,98148.41
2022-09-23T15:27:32.552Z,98140.44
2022-09-23T15:30:21.627Z,98142.09
2022-09-23T15:33:13.454Z,98140.25
2022-09-23T15:36:01.366Z,98150.97
2022-09-23T15:38:50.770Z,98140.25
2022-09-23T15:41:38.430Z,98136.25
2022-09-23T15:44:29.531Z,98129.53
2022-09-23T15:47:21.511Z,98134.03
2022-09-23T15:50:12.937Z,98136.50
2022-09-23T15:53:00.332Z,98135.22
2022-09-23T15:55:53.189Z,98135.09
2022-09-23T15:58:40.668Z,98143.66
2022-09-23T16:01:31.259Z,98143.19
2022-09-23T16:04:19.186Z,98135.75
2022-09-23T16:07:06.665Z,98134.53
2022-09-23T16:09:54.798Z,98142.50
2022-09-23T16:12:43.720Z,98136.06
2022-09-23T16:15:33.671Z,98133.41
2022-09-23T16:18:21.263Z,98132.41
2022-09-23T16:21:13.845Z,98133.03
2022-09-23T16:24:01.604Z,98133.63
2022-09-23T16:26:49.544Z,98126.56
2022-09-23T16:29:38.723Z,98124.06
2022-09-23T16:32:27.220Z,98119.66
2022-09-23T16:35:16.576Z,98125.25
2022-09-23T16:38:04.240Z,98112.94
2022-09-23T16:40:51.832Z,98116.81
2022-09-23T16:43:40.470Z,98118.84
2022-09-23T16:46:31.454Z,98120.84
2022-09-23T16:49:19.423Z,98120.09
2022-09-23T16:52:07.538Z,98120.16
2022-09-23T16:54:55.318Z,98117.75
2022-09-23T16:57:42.955Z,98126.94
2022-09-23T17:00:48.424Z,98124.50
2022-09-23T17:03:42.955Z,98119.09
2022-09-23T17:06:30.828Z,98128.00
2022-09-23T17:09:21.067Z,98125.31
2022-09-23T17:12:19.959Z,98130.66
2022-09-23T17:15:09.987Z,98126.91
2022-09-23T17:17:57.688Z,98131.34
2022-09-23T17:20:46.553Z,98130.47
2022-09-23T17:23:37.619Z,98130.56
2022-09-23T17:26:28.189Z,98127.81
2022-09-23T17:29:16.495Z,98130.34
2022-09-23T17:32:04.873Z,98130.03
2022-09-23T17:34:52.639Z,98129.47
2022-09-23T17:37:41.327Z,98140.03
2022-09-23T17:40:29.336Z,98134.50
2022-09-23T17:43:20.122Z,98134.97
2022-09-23T17:46:10.800Z,98135.53
2022-09-23T17:48:58.942Z,98137.81
2022-09-23T17:51:46.362Z,98133.69
2022-09-23T17:54:35.869Z,98142.75
2022-09-23T17:57:23.603Z,98141.47
2022-09-23T18:00:13.226Z,98138.81
2022-09-23T18:03:00.695Z,98143.50
2022-09-23T18:05:48.493Z,98140.78
2022-09-23T18:08:36.331Z,98137.06
2022-09-23T18:11:28.856Z,98137.88
2022-09-23T18:14:19.546Z,98147.31
2022-09-23T18:17:07.453Z,98142.78
2022-09-23T18:19:54.944Z,98135.53
2022-09-23T18:22:42.493Z,98141.47
2022-09-23T18:25:39.214Z,98142.06
2022-09-23T18:28:34.649Z,98140.81
2022-09-23T18:31:22.506Z,98134.19
2022-09-23T18:34:15.269Z,98134.56
2022-09-23T18:37:02.656Z,98128.94
2022-09-23T18:39:50.265Z,98133.81
2022-09-23T18:42:38.088Z,98135.22
2022-09-23T18:45:27.162Z,98133.75
2022-09-23T18:48:32.299Z,98145.44
2022-09-23T18:51:22.400Z,98141.97
2022-09-23T18:54:09.998Z,98139.66
2022-09-23T18:57:01.311Z,98143.16
2022-09-23T18:59:48.932Z,98143.53
2022-09-23T19:02:38.035Z,98146.84
2022-09-23T19:05:25.579Z,98138.22
2022-09-23T19:08:13.351Z,98142.53
2022-09-23T19:11:04.197Z,98141.56
2022-09-23T19:13:55.773Z,98137.03
2022-09-23T19:16:43.981Z,98139.84
2022-09-23T19:19:33.018Z,98144.31
2022-09-23T19:22:20.489Z,98143.31
2022-09-23T19:25:09.696Z,98150.31
2022-09-23T19:27:57.388Z,98150.13
2022-09-23T19:30:44.808Z,98160.06
2022-09-23T19:33:32.348Z,98152.09
2022-09-23T19:36:26.822Z,98149.41
2022-09-23T19:39:19.112Z,98151.72
2022-09-23T19:42:07.801Z,98154.03
2022-09-23T19:44:55.552Z,98151.03
2022-09-23T19:47:42.999Z,98157.00
2022-09-23T19:50:34.671Z,98153.97
2022-09-23T19:53:27.985Z,98152.97
2022-09-23T19:56:18.161Z,98149.94
2022-09-23T19:59:09.269Z,98145.94
2022-09-23T20:01:56.976Z,98141.94
2022-09-23T20:04:45.019Z,98143.91
2022-09-23T20:07:32.876Z,98138.25
2022-09-23T20:10:22.107Z,98151.88
2022-09-23T20:13:09.800Z,98149.53
2022-09-23T20:15:58.740Z,98152.50
2022-09-23T20:18:52.571Z,98152.81
2022-09-23T20:21:40.428Z,98151.31
2022-09-23T20:24:29.906Z,98148.81
2022-09-23T20:27:18.122Z,98146.47
2022-09-23T20:30:07.903Z,98139.63
2022-09-23T20:32:55.698Z,98138.13
2022-09-23T20:35:44.007Z,98139.97
2022-09-23T20:38:32.144Z,98137.31
2022-09-23T20:41:19.781Z,98136.78
2022-09-23T20:44:12.981Z,98133.59
2022-09-23T20:47:00.724Z,98139.91
2022-09-23T20:49:48.950Z,98142.72
2022-09-23T20:52:36.790Z,98140.38
2022-09-23T20:55:24.421Z,98148.34
2022-09-23T20:58:11.814Z,98142.50
2022-09-23T21:01:05.266Z,98148.13
2022-09-23T21:03:55.825Z,98137.81
2022-09-23T21:06:43.730Z,98136.28
2022-09-23T21:09:32.080Z,98136.44
2022-09-23T21:12:19.962Z,98146.56
2022-09-23T21:15:08.598Z,98133.59
2022-09-23T21:17:57.715Z,98143.53
2022-09-23T21:20:54.040Z,98149.28
2022-09-23T21:23:43.484Z,98145.13
2022-09-23T21:26:31.156Z,98145.44
2022-09-23T21:29:19.210Z,98141.44
2022-09-23T21:32:06.974Z,98144.41
2022-09-23T21:34:56.008Z,98140.41
2022-09-23T21:37:43.820Z,98141.53
2022-09-23T21:40:49.003Z,98141.69
2022-09-23T21:43:40.190Z,98134.03
2022-09-23T21:46:29.330Z,98132.66
2022-09-23T21:49:16.853Z,98138.13
2022-09-23T21:52:07.739Z,98141.09
2022-09-23T21:54:55.378Z,98140.28
2022-09-23T21:57:44.060Z,98144.88
2022-09-23T22:00:31.953Z,98138.88
2022-09-23T22:03:20.435Z,98133.88
2022-09-23T22:06:11.009Z,98135.03
2022-09-23T22:09:02.769Z,98137.69
2022-09-23T22:12:11.506Z,98130.03
2022-09-23T22:14:59.282Z,98124.22
2022-09-23T22:17:48.019Z,98127.84
2022-09-23T22:20:35.506Z,98118.38
2022-09-23T22:23:22.989Z,98118.53
2022-09-23T22:26:11.887Z,98115.88
2022-09-23T22:29:17.102Z,98115.19
2022-09-23T22:32:28.110Z,98112.53
2022-09-23T22:35:18.654Z,98115.34
2022-09-23T22:38:06.022Z,98124.44
2022-09-23T22:40:54.165Z,98114.81
2022-09-23T22:43:42.777Z,98120.13
2022-09-23T22:46:33.460Z,98117.63
2022-09-23T22:49:20.923Z,98122.09
2022-09-23T22:52:11.422Z,98125.72
2022-09-23T22:54:58.797Z,98123.09
2022-09-23T22:57:46.135Z,98128.69
2022-09-23T23:00:36.813Z,98127.69
2022-09-23T23:03:26.588Z,98124.38
2022-09-23T23:06:13.952Z,98125.19
2022-09-23T23:09:02.051Z,98124.38
2022-09-23T23:11:49.303Z,98124.53
2022-09-23T23:14:38.156Z,98124.69
2022-09-23T23:17:26.926Z,98124.69
2022-09-23T23:20:14.678Z,98119.69
2022-09-23T23:23:02.686Z,98116.88
2022-09-23T23:25:50.342Z,98118.00
2022-09-23T23:28:37.754Z,98118.28
2022-09-23T23:31:28.315Z,98112.19
2022-09-23T23:34:20.374Z,98113.69
2022-09-23T23:37:08.375Z,98116.78
2022-09-23T23:39:57.776Z,98107.97
2022-09-23T23:42:45.421Z,98108.13
2022-09-23T23:45:32.770Z,98102.31
2022-09-23T23:48:21.160Z,98104.13
2022-09-23T23:51:12.606Z,98110.28
2022-09-23T23:54:01.315Z,98105.97
2022-09-23T23:56:48.752Z,98101.63
2022-09-23T23:59:36.260Z,98104.56
